Time;durP1;ratioP1;P1;durP2;ratioP2;P2;SDS_P1;SDS_P2;PMS_P1;PMS_P2;Temp;Humidity;BMP_temperature;BMP_pressure;BME280_temperature;BME280_humidity;BME280_pressure;Samples;Min_cycle;Max_cycle;Signal;HPM_P1;HPM_P2
2023/12/01 00:01:30;;;;;;;27.02;15.75;;;;;;;-0.27;98.65;100631.06;10471027;28;20054;-57
2023/12/01 00:06:51;;;;;;;30.58;15.95;;;;;;;-0.34;98.48;100627.59;10455441;28;20071;-58
2023/12/01 00:12:13;;;;;;;25.15;14.50;;;;;;;-0.32;99.16;100630.16;10473899;28;20087;-57
2023/12/01 00:17:35;;;;;;;25.60;14.02;;;;;;;-0.36;98.00;100625.88;10458172;28;20053;-61
2023/12/01 00:22:58;;;;;;;25.33;14.70;;;;;;;-0.39;97.92;100630.94;10460705;28;20079;-60
2023/12/01 00:28:20;;;;;;;27.60;14.98;;;;;;;-0.42;98.41;100620.75;10472955;28;20111;-60
2023/12/01 00:33:41;;;;;;;24.38;14.00;;;;;;;-0.45;97.42;100639.34;10459645;28;20041;-58
2023/12/01 00:39:06;;;;;;;27.83;14.60;;;;;;;-0.44;98.83;100638.50;10474880;28;20102;-58
2023/12/01 00:44:28;;;;;;;24.85;13.65;;;;;;;-0.42;99.04;100651.25;10456640;28;20037;-59
2023/12/01 00:49:51;;;;;;;28.35;15.07;;;;;;;-0.37;98.67;100667.38;10446853;28;20102;-59
2023/12/01 00:55:12;;;;;;;23.55;13.50;;;;;;;-0.40;97.71;100664.78;10460995;28;20056;-58
2023/12/01 01:00:34;;;;;;;20.55;13.02;;;;;;;-0.53;96.07;100657.88;10457272;28;21298;-59
2023/12/01 01:05:56;;;;;;;22.55;13.25;;;;;;;-0.41;97.88;100663.09;10452828;28;20091;-59
2023/12/01 01:11:17;;;;;;;26.83;14.60;;;;;;;-0.38;97.60;100675.81;10451978;28;20055;-59
2023/12/01 01:16:42;;;;;;;25.50;14.38;;;;;;;-0.38;98.38;100670.75;10463700;28;20098;-59
2023/12/01 01:22:03;;;;;;;25.95;14.07;;;;;;;-0.38;97.97;100663.13;10453288;28;20044;-59
2023/12/01 01:27:25;;;;;;;27.20;14.48;;;;;;;-0.39;97.71;100658.88;10460179;28;20056;-59
2023/12/01 01:32:48;;;;;;;24.38;14.25;;;;;;;-0.41;98.44;100679.22;10464834;28;20167;-59
2023/12/01 01:38:09;;;;;;;26.48;14.70;;;;;;;-0.43;96.63;100680.88;10449107;28;20041;-58
2023/12/01 01:43:31;;;;;;;27.52;16.15;;;;;;;-0.43;98.11;100669.84;10477075;28;20390;-58
2023/12/01 01:48:54;;;;;;;27.08;15.30;;;;;;;-0.51;95.91;100681.59;10470480;28;20142;-58
2023/12/01 01:54:23;;;;;;;26.25;15.35;;;;;;;-0.51;95.85;100686.69;10469529;28;20403;-60
2023/12/01 01:59:46;;;;;;;29.90;16.08;;;;;;;-0.50;96.79;100708.72;10465885;28;20048;-59
2023/12/01 02:05:13;;;;;;;29.85;16.52;;;;;;;-0.44;96.66;100711.34;10479710;28;20386;-57
2023/12/01 02:10:36;;;;;;;26.52;15.02;;;;;;;-0.41;97.70;100708.84;10462559;28;20068;-60
2023/12/01 02:15:59;;;;;;;24.40;14.73;;;;;;;-0.38;97.28;100719.03;10469854;28;20060;-59
2023/12/01 02:21:25;;;;;;;28.90;15.50;;;;;;;-0.38;96.37;100713.94;10466848;28;20122;-57
2023/12/01 02:26:47;;;;;;;24.30;14.20;;;;;;;-0.40;96.63;100715.59;10466869;28;20061;-58
2023/12/01 02:32:08;;;;;;;23.58;13.85;;;;;;;-0.40;96.44;100713.94;10479169;28;20063;-57
2023/12/01 02:37:30;;;;;;;22.40;14.52;;;;;;;-0.44;94.81;100703.72;10464676;28;20069;-57
2023/12/01 02:42:53;;;;;;;24.15;13.80;;;;;;;-0.48;94.85;100712.13;10465010;28;20456;-58
2023/12/01 02:48:18;;;;;;;25.10;14.98;;;;;;;-0.49;95.18;100720.56;10465418;28;20048;-60
2023/12/01 02:53:40;;;;;;;25.30;14.52;;;;;;;-0.52;94.48;100720.56;10455110;28;20051;-60
2023/12/01 02:59:03;;;;;;;25.38;15.20;;;;;;;-0.48;95.25;100719.75;10469134;28;20146;-60
2023/12/01 03:04:24;;;;;;;24.27;14.77;;;;;;;-0.49;95.74;100721.44;10447856;28;20044;-58
2023/12/01 03:09:46;;;;;;;25.80;15.23;;;;;;;-0.44;95.82;100713.88;10461428;28;20129;-58
2023/12/01 03:15:11;;;;;;;27.05;15.18;;;;;;;-0.49;94.18;100726.53;10468454;28;20508;-58
2023/12/01 03:20:32;;;;;;;18.67;10.35;;;;;;;-0.48;94.13;100727.38;10464323;28;20122;-58
2023/12/01 03:25:54;;;;;;;27.52;15.85;;;;;;;-0.53;94.44;100729.84;10465872;28;20505;-58
2023/12/01 03:31:22;;;;;;;24.27;14.60;;;;;;;-0.58;93.55;100725.53;10462166;28;20049;-60
2023/12/01 03:36:44;;;;;;;29.65;16.33;;;;;;;-0.62;93.91;100726.38;10478263;28;20090;-60
2023/12/01 03:42:11;;;;;;;28.80;17.42;;;;;;;-0.70;93.56;100735.56;10467394;28;20169;-60
2023/12/01 03:47:35;;;;;;;33.72;17.52;;;;;;;-0.70;94.16;100725.41;10459653;28;20064;-57
2023/12/01 03:52:56;;;;;;;28.10;16.83;;;;;;;-0.71;94.45;100728.75;10461907;28;20052;-57
2023/12/01 03:58:18;;;;;;;33.47;18.10;;;;;;;-0.78;94.40;100724.44;10476237;28;20049;-57
2023/12/01 04:03:40;;;;;;;35.50;19.73;;;;;;;-0.81;94.54;100726.94;10479920;28;20036;-60
2023/12/01 04:09:05;;;;;;;33.80;19.45;;;;;;;-0.85;94.37;100725.19;10462121;28;20060;-59
2023/12/01 04:14:28;;;;;;;24.80;14.67;;;;;;;-0.90;93.72;100736.97;10480762;28;20083;-58
2023/12/01 04:19:49;;;;;;;33.05;19.17;;;;;;;-1.01;93.71;100730.03;10458919;28;20060;-58
2023/12/01 04:25:11;;;;;;;35.13;19.90;;;;;;;-1.02;94.15;100735.09;10473218;28;20051;-60
2023/12/01 04:30:34;;;;;;;35.38;20.02;;;;;;;-1.04;94.04;100745.22;10460635;28;20114;-58
2023/12/01 04:35:56;;;;;;;36.67;21.10;;;;;;;-1.10;94.16;100754.44;10464325;28;20049;-60
2023/12/01 04:41:17;;;;;;;35.17;20.13;;;;;;;-1.12;95.56;100754.41;10465064;28;20048;-58
2023/12/01 04:46:39;;;;;;;36.90;20.13;;;;;;;-1.13;95.28;100756.91;10462949;28;20109;-58
2023/12/01 04:52:01;;;;;;;35.45;20.55;;;;;;;-1.14;95.57;100768.78;10462473;28;21077;-59
2023/12/01 04:57:23;;;;;;;34.90;20.33;;;;;;;-1.17;95.36;100761.09;10462531;28;20083;-58
2023/12/01 05:03:05;;;;;;;37.08;21.17;;;;;;;-1.20;95.96;100761.06;10462527;28;20063;-58
2023/12/01 05:08:33;;;;;;;38.05;21.08;;;;;;;-1.21;95.58;100774.56;10473696;28;20060;-59
2023/12/01 05:13:55;;;;;;;40.45;21.08;;;;;;;-1.25;95.85;100770.28;10476226;28;20393;-58
2023/12/01 05:19:17;;;;;;;38.22;20.70;;;;;;;-1.28;96.03;100779.50;10461650;28;20405;-58
2023/12/01 05:24:38;;;;;;;37.53;22.00;;;;;;;-1.32;95.34;100778.59;10448247;28;20045;-58
2023/12/01 05:30:00;;;;;;;38.05;21.00;;;;;;;-1.31;96.71;100785.41;10491479;28;20056;-57
2023/12/01 05:35:22;;;;;;;36.17;21.15;;;;;;;-1.35;96.18;100788.72;10464456;28;20080;-57
2023/12/01 05:40:44;;;;;;;38.92;21.88;;;;;;;-1.41;95.63;100791.13;10465794;28;20078;-59
2023/12/01 05:46:06;;;;;;;40.05;21.25;;;;;;;-1.43;96.16;100795.31;10484343;28;20048;-57
2023/12/01 05:51:30;;;;;;;39.55;21.58;;;;;;;-1.49;95.65;100795.25;10467477;28;20127;-57
2023/12/01 05:56:51;;;;;;;42.42;22.40;;;;;;;-1.48;96.41;100796.06;10468245;28;20546;-58
2023/12/01 06:02:14;;;;;;;49.60;22.88;;;;;;;-1.51;95.86;100789.28;10464852;28;20373;-57
2023/12/01 06:07:36;;;;;;;42.88;22.17;;;;;;;-1.54;96.17;100791.75;10481832;28;20068;-57
2023/12/01 06:12:58;;;;;;;42.72;23.88;;;;;;;-1.56;96.20;100806.09;10466842;28;20055;-57
2023/12/01 06:18:20;;;;;;;45.55;22.90;;;;;;;-1.61;96.96;100805.13;10462120;28;20044;-59
2023/12/01 06:23:41;;;;;;;39.78;21.80;;;;;;;-1.62;96.88;100808.53;10484086;28;20128;-58
2023/12/01 06:29:03;;;;;;;45.53;24.13;;;;;;;-1.66;96.72;100821.97;10468447;28;20076;-58
2023/12/01 06:34:25;;;;;;;42.78;23.60;;;;;;;-1.67;96.21;100814.34;10464037;28;20140;-59
2023/12/01 06:39:46;;;;;;;45.42;23.73;;;;;;;-1.69;96.33;100821.91;10479672;28;20572;-58
2023/12/01 06:45:13;;;;;;;46.42;23.85;;;;;;;-1.73;96.08;100835.34;10462083;28;20491;-58
2023/12/01 06:50:35;;;;;;;43.72;23.52;;;;;;;-1.75;96.00;100841.22;10480772;28;20528;-57
2023/12/01 06:55:57;;;;;;;43.20;23.33;;;;;;;-1.74;97.01;100853.91;10460859;28;20515;-58
2023/12/01 07:01:19;;;;;;;45.05;23.05;;;;;;;-1.76;96.55;100850.53;10483581;28;20063;-58
2023/12/01 07:06:46;;;;;;;41.60;24.00;;;;;;;-1.74;96.94;100868.28;10464929;28;20048;-58
2023/12/01 07:12:08;;;;;;;49.97;24.85;;;;;;;-1.79;96.17;100880.00;10474814;28;20057;-58
2023/12/01 07:17:30;;;;;;;52.25;26.15;;;;;;;-1.81;96.84;100877.44;10475437;28;20118;-59
2023/12/01 07:22:53;;;;;;;52.92;24.65;;;;;;;-1.85;95.97;100890.88;10468007;28;20068;-58
2023/12/01 07:28:14;;;;;;;47.20;25.17;;;;;;;-1.83;96.41;100899.38;10459919;28;20056;-58
2023/12/01 07:33:36;;;;;;;43.88;23.67;;;;;;;-1.80;96.58;100903.66;10459380;28;20052;-58
2023/12/01 07:38:58;;;;;;;46.03;24.52;;;;;;;-1.72;98.29;100908.03;10463120;28;20532;-58
2023/12/01 07:44:20;;;;;;;51.67;26.55;;;;;;;-1.74;97.33;100904.63;10474774;28;20044;-58
2023/12/01 07:49:42;;;;;;;47.53;24.60;;;;;;;-1.70;96.73;100906.41;10477087;28;20056;-58
2023/12/01 07:55:04;;;;;;;52.28;25.05;;;;;;;-1.58;97.32;100921.88;10465754;28;20053;-59
2023/12/01 08:00:27;;;;;;;49.78;24.60;;;;;;;-1.50;96.79;100915.25;10470560;28;20075;-59
2023/12/01 08:05:48;;;;;;;47.08;25.17;;;;;;;-1.34;99.19;100937.56;10442225;28;20048;-58
2023/12/01 08:11:10;;;;;;;53.28;24.73;;;;;;;-1.28;97.99;100937.69;10473559;28;20094;-58
2023/12/01 08:16:32;;;;;;;45.85;23.60;;;;;;;-1.23;97.60;100936.09;10450679;28;20096;-58
2023/12/01 08:21:53;;;;;;;48.65;25.17;;;;;;;-1.18;97.49;100931.97;10472235;28;20509;-58
2023/12/01 08:27:15;;;;;;;48.65;24.30;;;;;;;-1.16;96.92;100937.94;10479089;28;20082;-59
2023/12/01 08:32:37;;;;;;;43.25;23.05;;;;;;;-1.08;97.51;100938.91;10446499;28;20151;-59
2023/12/01 08:38:00;;;;;;;46.17;24.85;;;;;;;-0.99;97.31;100937.38;10444324;28;20047;-60
2023/12/01 08:43:21;;;;;;;40.92;22.45;;;;;;;-0.94;98.30;100940.84;10469136;28;20543;-59
2023/12/01 08:48:44;;;;;;;42.42;21.10;;;;;;;-0.87;97.57;100930.84;10477545;28;20115;-58
2023/12/01 08:54:06;;;;;;;50.92;22.88;;;;;;;-0.75;98.45;100940.34;10458897;28;20385;-58
2023/12/01 08:59:28;;;;;;;45.53;22.83;;;;;;;-0.67;98.77;100943.88;10453376;28;20489;-59
2023/12/01 09:04:49;;;;;;;43.85;22.90;;;;;;;-0.57;99.86;100940.66;10473048;28;20049;-59
2023/12/01 09:10:11;;;;;;;36.40;20.55;;;;;;;-0.52;98.96;100959.38;10447547;28;20064;-59
2023/12/01 09:15:33;;;;;;;33.63;18.50;;;;;;;-0.43;98.74;100959.50;10474403;28;20135;-58
2023/12/01 09:20:55;;;;;;;41.58;20.75;;;;;;;-0.38;98.26;100957.91;10468735;28;20048;-58
2023/12/01 09:26:17;;;;;;;39.13;19.75;;;;;;;-0.33;99.15;100961.38;10463777;28;20536;-59
2023/12/01 09:31:46;;;;;;;34.80;18.77;;;;;;;-0.30;97.46;100959.75;10472336;28;20140;-59
2023/12/01 09:37:08;;;;;;;36.90;19.48;;;;;;;-0.24;99.02;100946.28;10476201;28;20130;-59
2023/12/01 09:42:33;;;;;;;39.13;20.92;;;;;;;-0.22;98.66;100952.25;10481971;28;20080;-61
2023/12/01 09:48:04;;;;;;;41.50;19.40;;;;;;;-0.20;98.65;100948.00;10449784;28;20052;-61
2023/12/01 09:53:26;;;;;;;43.50;23.30;;;;;;;-0.12;96.96;100949.00;10439585;28;20520;-59
2023/12/01 09:58:49;;;;;;;43.65;22.63;;;;;;;-0.08;96.39;100949.06;10455016;28;20909;-59
2023/12/01 10:04:12;;;;;;;51.28;25.50;;;;;;;-0.08;97.14;100944.00;10457607;28;20040;-59
2023/12/01 10:09:33;;;;;;;47.22;23.42;;;;;;;-0.06;97.71;100941.47;10466697;28;20053;-63
2023/12/01 10:14:55;;;;;;;54.78;25.23;;;;;;;0.02;97.97;100959.38;10471572;28;20049;-60
2023/12/01 10:20:21;;;;;;;51.55;24.05;;;;;;;0.03;97.49;100961.94;10466964;28;20064;-61
2023/12/01 10:25:49;;;;;;;47.95;22.45;;;;;;;0.08;97.25;100965.38;10461310;28;20390;-60
2023/12/01 10:31:15;;;;;;;45.88;24.27;;;;;;;0.13;98.23;100973.94;10474874;28;20127;-60
2023/12/01 10:36:36;;;;;;;52.67;25.48;;;;;;;0.16;95.94;100968.91;10475458;28;20409;-60
2023/12/01 10:41:59;;;;;;;49.63;25.77;;;;;;;0.19;96.53;100974.03;10479631;28;20040;-60
2023/12/01 10:47:25;;;;;;;50.67;25.90;;;;;;;0.24;97.67;100974.94;10464773;28;20508;-60
2023/12/01 10:52:50;;;;;;;45.13;23.67;;;;;;;0.26;97.50;100974.97;10464986;28;20143;-60
2023/12/01 10:58:21;;;;;;;44.58;23.88;;;;;;;0.33;98.19;100972.50;10468336;28;20059;-59
2023/12/01 11:03:45;;;;;;;40.70;20.63;;;;;;;0.32;97.41;100969.97;10462791;28;20052;-59
2023/12/01 11:09:24;;;;;;;39.78;19.67;;;;;;;0.23;97.36;100957.97;10455423;28;20049;-59
2023/12/01 11:14:49;;;;;;;39.92;20.27;;;;;;;0.24;98.79;100961.38;10471512;28;20050;-59
2023/12/01 11:20:29;;;;;;;37.45;20.17;;;;;;;0.26;98.92;100970.72;10457458;28;20111;-58
2023/12/01 11:26:08;;;;;;;39.35;19.83;;;;;;;0.26;98.46;100960.56;10475077;28;20443;-60
2023/12/01 11:36:54;;;;;;;41.30;20.80;;;;;;;0.25;98.42;100956.31;10467929;28;20053;-60
2023/12/01 11:42:16;;;;;;;46.42;22.15;;;;;;;0.32;99.04;100968.28;10462921;28;20129;-59
2023/12/01 11:47:38;;;;;;;38.40;20.20;;;;;;;0.31;97.85;100964.00;10453544;28;20110;-60
2023/12/01 11:53:01;;;;;;;38.60;20.52;;;;;;;0.32;98.49;100975.91;10481353;28;20144;-59
2023/12/01 11:58:22;;;;;;;41.15;21.13;;;;;;;0.34;98.07;100969.16;10466401;28;20075;-59
2023/12/01 12:03:53;;;;;;;40.78;22.48;;;;;;;0.33;98.33;100967.44;10468259;28;20134;-59
2023/12/01 12:09:19;;;;;;;43.33;21.38;;;;;;;0.33;97.74;100964.06;10454465;28;20052;-59
2023/12/01 12:14:41;;;;;;;42.05;21.73;;;;;;;0.34;98.01;100964.06;10454802;28;20041;-60
2023/12/01 12:20:05;;;;;;;42.45;22.17;;;;;;;0.37;98.23;100961.56;10472552;28;20063;-60
2023/12/01 12:25:37;;;;;;;38.08;20.00;;;;;;;0.35;98.22;100970.84;10460670;28;20048;-58
2023/12/01 12:30:59;;;;;;;42.75;20.45;;;;;;;0.42;98.96;100967.53;10467846;28;20072;-60
2023/12/01 12:36:23;;;;;;;35.65;19.67;;;;;;;0.50;97.58;100953.25;10459297;28;20172;-60
2023/12/01 12:41:59;;;;;;;35.40;19.67;;;;;;;0.52;97.33;100969.38;10472510;28;20106;-58
2023/12/01 12:47:22;;;;;;;34.85;19.42;;;;;;;0.56;98.08;100968.59;10463453;28;20459;-60
2023/12/01 12:52:44;;;;;;;36.35;20.02;;;;;;;0.61;98.29;100969.50;10467586;28;20400;-59
2023/12/01 12:58:06;;;;;;;35.17;18.73;;;;;;;0.62;97.40;100966.09;10452976;28;20644;-60
2023/12/01 13:03:27;;;;;;;29.20;16.58;;;;;;;0.63;98.25;100961.88;10472758;28;20370;-59
2023/12/01 13:08:49;;;;;;;29.15;16.92;;;;;;;0.63;98.08;100959.31;10461886;28;20127;-59
2023/12/01 13:14:12;;;;;;;30.48;17.90;;;;;;;0.63;97.94;100957.66;10478362;28;20052;-59
2023/12/01 13:19:35;;;;;;;43.67;19.80;;;;;;;0.67;97.30;100954.31;10478991;28;20041;-60
2023/12/01 13:24:56;;;;;;;34.20;17.50;;;;;;;0.73;97.93;100961.16;10462809;28;20564;-61
2023/12/01 13:30:18;;;;;;;39.13;18.40;;;;;;;0.71;98.15;100956.06;10453628;28;20155;-59
2023/12/01 13:35:40;;;;;;;31.33;17.15;;;;;;;0.67;96.90;100954.31;10431267;28;20052;-58
2023/12/01 13:41:02;;;;;;;28.08;15.98;;;;;;;0.69;96.92;100960.28;10453637;28;20487;-59
2023/12/01 13:46:24;;;;;;;30.08;16.95;;;;;;;0.73;98.21;100959.44;10461650;28;20041;-59
2023/12/01 13:51:46;;;;;;;27.27;16.45;;;;;;;0.75;98.21;100962.88;10473386;28;20053;-59
2023/12/01 13:57:07;;;;;;;29.15;16.40;;;;;;;0.74;98.43;100957.75;10473046;28;20070;-59
2023/12/01 14:02:29;;;;;;;27.55;16.65;;;;;;;0.70;97.81;100964.50;10472137;28;20041;-59
2023/12/01 14:07:51;;;;;;;30.13;17.65;;;;;;;0.58;96.11;100966.06;10492608;28;20139;-58
2023/12/01 14:13:13;;;;;;;30.02;16.15;;;;;;;0.56;97.34;100966.03;10479799;28;20054;-61
2023/12/01 14:18:35;;;;;;;31.67;17.70;;;;;;;0.54;96.79;100966.84;10485499;28;20044;-59
2023/12/01 14:23:57;;;;;;;34.40;17.65;;;;;;;0.48;96.48;100970.19;10470831;28;20616;-58
2023/12/01 14:29:19;;;;;;;29.60;16.40;;;;;;;0.47;97.09;100965.94;10465688;28;20436;-60
2023/12/01 14:34:41;;;;;;;27.98;16.92;;;;;;;0.47;97.82;100965.06;10478886;28;20048;-59
2023/12/01 14:40:03;;;;;;;29.63;17.15;;;;;;;0.49;97.66;100971.91;10483032;28;20049;-60
2023/12/01 14:45:27;;;;;;;30.25;16.70;;;;;;;0.50;97.53;100960.88;10474309;28;20056;-60
2023/12/01 14:50:50;;;;;;;31.05;16.75;;;;;;;0.46;97.74;100954.03;10483202;28;20060;-59
2023/12/01 14:56:12;;;;;;;27.83;16.33;;;;;;;0.45;98.33;100951.47;10470205;28;20060;-59
2023/12/01 15:01:35;;;;;;;30.65;16.23;;;;;;;0.31;96.75;100953.81;10476160;28;20059;-59
2023/12/01 15:06:57;;;;;;;28.08;16.88;;;;;;;0.25;98.42;100963.94;10460171;28;20125;-59
2023/12/01 15:12:18;;;;;;;26.23;15.30;;;;;;;0.23;98.38;100960.53;10465605;28;20146;-59
2023/12/01 15:17:40;;;;;;;28.92;15.48;;;;;;;0.21;98.33;100962.19;10467320;28;20052;-59
2023/12/01 15:23:02;;;;;;;25.05;14.88;;;;;;;0.23;98.58;100965.59;10466203;28;20087;-59
2023/12/01 15:28:23;;;;;;;28.35;16.35;;;;;;;0.21;99.09;100962.19;10470203;28;20143;-59
2023/12/01 15:33:45;;;;;;;27.85;15.68;;;;;;;0.23;98.91;100964.75;10472974;28;20143;-60
2023/12/01 15:39:07;;;;;;;33.45;17.38;;;;;;;0.16;98.42;100963.81;10462917;28;20048;-61
2023/12/01 15:44:29;;;;;;;27.10;16.20;;;;;;;0.13;99.11;100963.75;10458243;28;20143;-60
2023/12/01 15:49:50;;;;;;;29.75;16.77;;;;;;;0.14;98.54;100967.16;10470284;28;20052;-60
2023/12/01 15:55:12;;;;;;;28.45;15.98;;;;;;;0.10;99.00;100971.34;10473122;28;20059;-59
2023/12/01 16:00:34;;;;;;;34.63;17.83;;;;;;;0.02;98.72;100988.19;10458674;28;20056;-59
2023/12/01 16:05:55;;;;;;;43.65;20.92;;;;;;;-0.05;98.11;100988.91;10461466;28;20041;-59
2023/12/01 16:11:21;;;;;;;34.08;18.40;;;;;;;-0.16;98.50;100987.91;10453623;28;20084;-59
2023/12/01 16:16:42;;;;;;;31.67;18.27;;;;;;;-0.15;99.22;100993.00;10464328;28;20087;-60
2023/12/01 16:22:04;;;;;;;29.45;17.15;;;;;;;-0.16;99.01;101000.63;10433386;28;20500;-59
2023/12/01 16:27:26;;;;;;;38.00;18.75;;;;;;;-0.18;99.38;101003.13;10428107;28;20056;-59
2023/12/01 16:32:47;;;;;;;35.90;17.92;;;;;;;-0.29;99.04;101016.50;10453433;28;20052;-59
2023/12/01 16:38:09;;;;;;;32.45;18.48;;;;;;;-0.31;98.92;101020.72;10471536;28;20079;-59
2023/12/01 16:43:31;;;;;;;35.50;18.55;;;;;;;-0.29;99.33;101008.88;10462661;28;20850;-59
2023/12/01 16:48:52;;;;;;;38.25;19.23;;;;;;;-0.36;98.90;101022.31;10465327;28;20057;-59
2023/12/01 16:54:14;;;;;;;49.33;24.13;;;;;;;-0.36;99.30;101028.25;10460563;28;20044;-60
2023/12/01 16:59:36;;;;;;;39.72;20.50;;;;;;;-0.29;99.17;101032.59;10461327;28;20100;-59
2023/12/01 17:04:57;;;;;;;42.38;21.30;;;;;;;-0.31;99.67;101030.88;10474187;28;20161;-59
2023/12/01 17:10:19;;;;;;;40.92;21.50;;;;;;;-0.41;99.61;101040.03;10461716;28;20044;-61
2023/12/01 17:15:41;;;;;;;43.58;21.40;;;;;;;-0.39;99.72;101042.59;10462158;28;20053;-59
2023/12/01 17:21:03;;;;;;;42.75;22.60;;;;;;;-0.30;100.00;101045.28;10463671;28;20497;-61
2023/12/01 17:26:25;;;;;;;40.10;20.73;;;;;;;-0.27;99.10;101048.75;10466718;28;20075;-59
2023/12/01 17:31:47;;;;;;;40.08;21.25;;;;;;;-0.26;99.65;101049.59;10481927;28;20143;-60
2023/12/01 17:37:08;;;;;;;48.83;23.67;;;;;;;-0.27;98.71;101055.50;10466136;28;20048;-59
2023/12/01 17:42:30;;;;;;;43.83;22.63;;;;;;;-0.27;98.96;101052.97;10475812;28;20095;-59
2023/12/01 17:47:56;;;;;;;42.40;20.98;;;;;;;-0.23;98.81;101059.81;10483127;28;20053;-58
2023/12/01 17:53:18;;;;;;;40.30;20.75;;;;;;;-0.30;98.09;101063.09;10468067;28;20057;-59
2023/12/01 17:58:39;;;;;;;44.15;22.58;;;;;;;-0.26;99.31;101068.22;10471693;28;20052;-59
2023/12/01 18:04:02;;;;;;;43.90;21.70;;;;;;;-0.25;99.25;101069.09;10484294;28;20045;-59
2023/12/01 18:09:24;;;;;;;40.05;21.73;;;;;;;-0.24;99.49;101058.13;10463984;28;20048;-59
2023/12/01 18:14:45;;;;;;;45.67;21.92;;;;;;;-0.29;98.37;101064.78;10468311;28;20458;-59
2023/12/01 18:20:07;;;;;;;45.17;21.88;;;;;;;-0.26;99.02;101059.78;10464104;28;20063;-60
2023/12/01 18:25:29;;;;;;;47.63;21.67;;;;;;;-0.29;98.23;101069.88;10466237;28;20058;-59
2023/12/01 18:30:50;;;;;;;44.78;22.63;;;;;;;-0.24;100.00;101065.75;10469491;28;20056;-59
2023/12/01 18:36:13;;;;;;;50.53;23.08;;;;;;;-0.26;98.54;101075.84;10452930;28;21546;-60
2023/12/01 18:41:35;;;;;;;46.53;22.38;;;;;;;-0.31;98.35;101066.47;10442360;28;20055;-60
2023/12/01 18:46:56;;;;;;;46.17;23.52;;;;;;;-0.39;97.78;101070.56;10452865;28;20497;-59
2023/12/01 18:52:18;;;;;;;54.47;23.80;;;;;;;-0.37;98.99;101082.47;10458657;28;20413;-59
2023/12/01 18:57:40;;;;;;;44.13;24.13;;;;;;;-0.29;99.24;101085.13;10454203;28;20053;-60
2023/12/01 19:03:01;;;;;;;48.30;23.60;;;;;;;-0.27;98.39;101084.31;10440195;28;20440;-58
2023/12/01 19:08:24;;;;;;;65.97;31.13;;;;;;;-0.25;98.18;101091.97;10465852;28;20049;-59
2023/12/01 19:13:46;;;;;;;51.72;25.05;;;;;;;-0.22;98.00;101081.88;10462621;28;20053;-59
2023/12/01 19:19:08;;;;;;;55.17;27.48;;;;;;;-0.17;98.18;101080.25;10459417;28;20639;-59
2023/12/01 19:24:30;;;;;;;70.15;29.90;;;;;;;-0.16;98.24;101079.41;10466766;28;20063;-59
2023/12/01 19:29:51;;;;;;;54.47;24.30;;;;;;;-0.20;97.24;101085.28;10469544;28;20517;-60
2023/12/01 19:35:13;;;;;;;61.72;27.92;;;;;;;-0.26;98.32;101086.03;10466835;28;20382;-59
2023/12/01 19:40:36;;;;;;;62.75;27.73;;;;;;;-0.24;97.71;101076.75;10455349;28;20510;-59
2023/12/01 19:45:57;;;;;;;58.25;27.15;;;;;;;-0.20;99.03;101081.06;10463133;28;20050;-58
2023/12/01 19:51:19;;;;;;;48.88;23.60;;;;;;;-0.16;98.78;101082.81;10469934;28;20053;-59
2023/12/01 19:56:42;;;;;;;51.63;24.88;;;;;;;-0.15;98.25;101078.59;10470026;28;20045;-59
2023/12/01 20:02:04;;;;;;;49.72;24.75;;;;;;;-0.21;97.97;101075.97;10456451;28;20052;-59
2023/12/01 20:07:26;;;;;;;46.97;23.88;;;;;;;-0.19;98.39;101071.75;10464676;28;20146;-59
2023/12/01 20:12:48;;;;;;;53.60;24.80;;;;;;;-0.19;98.26;101080.25;10482458;28;20052;-59
2023/12/01 20:18:10;;;;;;;48.72;24.48;;;;;;;-0.19;99.19;101076.84;10465578;28;20150;-59
2023/12/01 20:23:32;;;;;;;49.33;23.60;;;;;;;-0.18;99.05;101081.06;10466318;28;20048;-58
2023/12/01 20:28:54;;;;;;;49.40;23.98;;;;;;;-0.24;98.62;101078.47;10445451;28;20136;-59
2023/12/01 20:34:16;;;;;;;50.05;24.05;;;;;;;-0.22;99.16;101077.63;10461260;28;20068;-59
2023/12/01 20:39:38;;;;;;;48.90;24.17;;;;;;;-0.26;99.53;101075.84;10476428;28;20044;-60
2023/12/01 20:45:00;;;;;;;50.13;23.95;;;;;;;-0.24;99.25;101071.66;10447068;28;20417;-60
2023/12/01 20:50:22;;;;;;;48.15;24.27;;;;;;;-0.24;99.33;101065.75;10479288;28;20053;-61
2023/12/01 20:55:44;;;;;;;48.85;24.23;;;;;;;-0.19;99.01;101071.75;10463032;28;20052;-59
2023/12/01 21:01:06;;;;;;;56.03;25.50;;;;;;;-0.18;98.65;101065.81;10462217;28;20570;-61
2023/12/01 21:06:29;;;;;;;54.78;25.75;;;;;;;-0.16;99.83;101067.56;10467240;28;20041;-64
2023/12/01 21:11:51;;;;;;;68.57;32.15;;;;;;;-0.11;100.00;101076.13;10458571;28;20522;-60
2023/12/01 21:17:12;;;;;;;69.38;29.80;;;;;;;-0.16;99.90;101077.75;10432234;28;20049;-59
2023/12/01 21:22:34;;;;;;;106.43;45.55;;;;;;;-0.16;99.85;101077.75;10466892;28;20045;-59
2023/12/01 21:27:56;;;;;;;76.72;34.50;;;;;;;-0.15;100.00;101083.69;10460749;28;20046;-59
2023/12/01 21:33:17;;;;;;;88.30;35.28;;;;;;;-0.21;100.00;101083.56;10473327;28;20048;-61
2023/12/01 21:38:39;;;;;;;83.05;34.55;;;;;;;-0.19;100.00;101087.00;10461310;28;20425;-59
2023/12/01 21:44:01;;;;;;;77.97;34.60;;;;;;;-0.18;100.00;101098.88;10449916;28;20059;-58
2023/12/01 21:49:22;;;;;;;78.25;33.67;;;;;;;-0.25;100.00;101097.06;10475849;28;20099;-58
2023/12/01 21:54:48;;;;;;;62.93;28.13;;;;;;;-0.30;100.00;101093.59;10468925;28;20044;-58
2023/12/01 22:00:13;;;;;;;67.28;30.27;;;;;;;-0.27;100.00;101093.63;10453129;28;20223;-59
2023/12/01 22:05:35;;;;;;;61.85;28.42;;;;;;;-0.29;100.00;101106.31;10476539;28;20180;-58
2023/12/01 22:10:56;;;;;;;57.60;27.63;;;;;;;-0.24;100.00;101098.78;10481179;28;20852;-57
2023/12/01 22:16:18;;;;;;;57.60;27.75;;;;;;;-0.23;100.00;101097.94;10454649;28;20147;-58
2023/12/01 22:21:40;;;;;;;61.28;28.67;;;;;;;-0.19;100.00;101108.22;10456354;28;20507;-58
2023/12/01 22:27:02;;;;;;;70.88;32.80;;;;;;;-0.12;100.00;101102.41;10468508;28;20052;-60
2023/12/01 22:32:26;;;;;;;88.28;37.40;;;;;;;-0.10;100.00;101103.28;10484103;28;20052;-58
2023/12/01 22:37:48;;;;;;;56.28;26.58;;;;;;;-0.08;100.00;101116.00;10472060;28;20063;-58
2023/12/01 22:43:10;;;;;;;55.65;27.10;;;;;;;-0.07;100.00;101125.34;10469870;28;20044;-58
2023/12/01 22:48:32;;;;;;;54.92;25.98;;;;;;;-0.09;100.00;101130.41;10466965;28;20159;-58
2023/12/01 22:53:54;;;;;;;58.08;25.20;;;;;;;-0.01;100.00;101133.94;10474797;28;20052;-58
2023/12/01 22:59:15;;;;;;;55.88;25.80;;;;;;;0.07;100.00;101139.19;10481125;28;20154;-59
2023/12/01 23:04:37;;;;;;;50.75;24.85;;;;;;;0.14;100.00;101135.91;10474972;28;20489;-59
2023/12/01 23:09:59;;;;;;;57.35;27.33;;;;;;;0.22;100.00;101141.94;10474677;28;20051;-60
2023/12/01 23:15:21;;;;;;;56.08;27.80;;;;;;;0.23;100.00;101137.72;10470487;28;20240;-60
2023/12/01 23:20:44;;;;;;;61.72;28.73;;;;;;;0.13;100.00;101134.16;10482377;28;20048;-58
2023/12/01 23:26:07;;;;;;;62.05;27.85;;;;;;;0.15;100.00;101132.50;10458971;28;20471;-58
2023/12/01 23:31:28;;;;;;;55.85;28.42;;;;;;;0.06;100.00;101127.28;10478776;28;20062;-58
2023/12/01 23:36:50;;;;;;;63.97;30.60;;;;;;;0.02;100.00;101133.13;10468950;28;20127;-58
2023/12/01 23:42:12;;;;;;;60.80;29.35;;;;;;;0.04;100.00;101133.19;10467987;28;20048;-58
2023/12/01 23:47:34;;;;;;;69.50;33.80;;;;;;;0.08;100.00;101133.25;10469632;28;20135;-58
2023/12/01 23:52:55;;;;;;;63.25;29.27;;;;;;;0.11;100.00;101120.56;10472246;28;20140;-58
2023/12/01 23:58:17;;;;;;;56.97;28.00;;;;;;;0.15;100.00;101114.69;10488495;28;20128;-59
